sensor_id;sensor_type;location;lat;lon;timestamp;P1;durP1;ratioP1;P2;durP2;ratioP2
79074;SDS011;68476;42.710;23.388;2024-03-07T00:00:04;29.92;;;18.00;;
79074;SDS011;68476;42.710;23.388;2024-03-07T00:02:50;26.25;;;15.77;;
79074;SDS011;68476;42.710;23.388;2024-03-07T00:05:20;29.40;;;16.92;;
79074;SDS011;68476;42.710;23.388;2024-03-07T00:07:49;26.58;;;17.30;;
79074;SDS011;68476;42.710;23.388;2024-03-07T00:10:15;28.83;;;16.67;;
79074;SDS011;68476;42.710;23.388;2024-03-07T00:12:41;28.48;;;16.88;;
79074;SDS011;68476;42.710;23.388;2024-03-07T00:15:08;26.77;;;15.50;;
79074;SDS011;68476;42.710;23.388;2024-03-07T00:17:35;27.70;;;16.75;;
79074;SDS011;68476;42.710;23.388;2024-03-07T00:20:02;27.27;;;15.70;;
79074;SDS011;68476;42.710;23.388;2024-03-07T00:22:34;24.63;;;15.10;;
79074;SDS011;68476;42.710;23.388;2024-03-07T00:25:02;25.83;;;16.92;;
79074;SDS011;68476;42.710;23.388;2024-03-07T00:27:32;29.00;;;18.35;;
79074;SDS011;68476;42.710;23.388;2024-03-07T00:29:58;29.00;;;17.83;;
79074;SDS011;68476;42.710;23.388;2024-03-07T00:32:24;29.27;;;17.02;;
79074;SDS011;68476;42.710;23.388;2024-03-07T00:34:52;27.25;;;16.73;;
79074;SDS011;68476;42.710;23.388;2024-03-07T00:37:17;28.50;;;16.55;;
79074;SDS011;68476;42.710;23.388;2024-03-07T00:39:43;30.60;;;16.90;;
79074;SDS011;68476;42.710;23.388;2024-03-07T00:42:08;26.38;;;15.77;;
79074;SDS011;68476;42.710;23.388;2024-03-07T00:44:34;30.88;;;16.80;;
79074;SDS011;68476;42.710;23.388;2024-03-07T00:47:00;31.98;;;20.38;;
79074;SDS011;68476;42.710;23.388;2024-03-07T00:49:29;29.30;;;17.17;;
79074;SDS011;68476;42.710;23.388;2024-03-07T00:51:56;30.20;;;20.20;;
79074;SDS011;68476;42.710;23.388;2024-03-07T00:54:23;30.85;;;18.55;;
79074;SDS011;68476;42.710;23.388;2024-03-07T00:56:48;26.80;;;16.13;;
79074;SDS011;68476;42.710;23.388;2024-03-07T00:59:17;25.13;;;15.93;;
79074;SDS011;68476;42.710;23.388;2024-03-07T01:01:43;27.98;;;17.30;;
79074;SDS011;68476;42.710;23.388;2024-03-07T01:04:09;26.25;;;15.65;;
79074;SDS011;68476;42.710;23.388;2024-03-07T01:06:34;26.33;;;15.55;;
79074;SDS011;68476;42.710;23.388;2024-03-07T01:09:01;24.58;;;15.00;;
79074;SDS011;68476;42.710;23.388;2024-03-07T01:11:27;27.10;;;16.55;;
79074;SDS011;68476;42.710;23.388;2024-03-07T01:13:53;25.73;;;16.25;;
79074;SDS011;68476;42.710;23.388;2024-03-07T01:16:18;23.67;;;15.30;;
79074;SDS011;68476;42.710;23.388;2024-03-07T01:18:44;24.17;;;15.05;;
79074;SDS011;68476;42.710;23.388;2024-03-07T01:21:09;23.92;;;14.40;;
79074;SDS011;68476;42.710;23.388;2024-03-07T01:23:35;23.13;;;15.23;;
79074;SDS011;68476;42.710;23.388;2024-03-07T01:26:00;26.77;;;16.30;;
79074;SDS011;68476;42.710;23.388;2024-03-07T01:28:27;25.00;;;15.57;;
79074;SDS011;68476;42.710;23.388;2024-03-07T01:30:55;23.38;;;14.48;;
79074;SDS011;68476;42.710;23.388;2024-03-07T01:33:21;22.92;;;14.93;;
79074;SDS011;68476;42.710;23.388;2024-03-07T01:35:47;21.65;;;12.68;;
79074;SDS011;68476;42.710;23.388;2024-03-07T01:38:13;21.15;;;13.20;;
79074;SDS011;68476;42.710;23.388;2024-03-07T01:40:40;22.95;;;13.45;;
79074;SDS011;68476;42.710;23.388;2024-03-07T01:43:06;21.95;;;13.80;;
79074;SDS011;68476;42.710;23.388;2024-03-07T01:45:32;24.90;;;14.65;;
79074;SDS011;68476;42.710;23.388;2024-03-07T01:47:57;23.13;;;13.35;;
79074;SDS011;68476;42.710;23.388;2024-03-07T01:50:24;23.20;;;15.00;;
79074;SDS011;68476;42.710;23.388;2024-03-07T01:52:49;22.63;;;14.48;;
79074;SDS011;68476;42.710;23.388;2024-03-07T01:55:16;26.58;;;15.07;;
79074;SDS011;68476;42.710;23.388;2024-03-07T01:57:42;25.63;;;14.27;;
79074;SDS011;68476;42.710;23.388;2024-03-07T02:00:08;23.20;;;14.70;;
79074;SDS011;68476;42.710;23.388;2024-03-07T02:02:34;26.92;;;15.75;;
79074;SDS011;68476;42.710;23.388;2024-03-07T02:05:00;25.92;;;14.13;;
79074;SDS011;68476;42.710;23.388;2024-03-07T02:07:26;27.27;;;13.88;;
79074;SDS011;68476;42.710;23.388;2024-03-07T02:10:25;24.80;;;15.07;;
79074;SDS011;68476;42.710;23.388;2024-03-07T02:12:43;25.05;;;14.52;;
79074;SDS011;68476;42.710;23.388;2024-03-07T02:15:10;24.33;;;14.07;;
79074;SDS011;68476;42.710;23.388;2024-03-07T02:17:36;27.05;;;14.82;;
79074;SDS011;68476;42.710;23.388;2024-03-07T02:20:02;24.98;;;14.35;;
79074;SDS011;68476;42.710;23.388;2024-03-07T02:22:29;25.33;;;15.38;;
79074;SDS011;68476;42.710;23.388;2024-03-07T02:24:54;26.08;;;14.93;;
79074;SDS011;68476;42.710;23.388;2024-03-07T02:27:20;25.75;;;15.02;;
79074;SDS011;68476;42.710;23.388;2024-03-07T02:29:45;24.88;;;14.48;;
79074;SDS011;68476;42.710;23.388;2024-03-07T02:32:12;24.45;;;14.52;;
79074;SDS011;68476;42.710;23.388;2024-03-07T02:34:38;23.73;;;13.93;;
79074;SDS011;68476;42.710;23.388;2024-03-07T02:37:03;27.50;;;14.55;;
79074;SDS011;68476;42.710;23.388;2024-03-07T02:39:29;24.95;;;13.80;;
79074;SDS011;68476;42.710;23.388;2024-03-07T02:41:55;25.65;;;13.60;;
79074;SDS011;68476;42.710;23.388;2024-03-07T02:44:20;23.48;;;13.70;;
79074;SDS011;68476;42.710;23.388;2024-03-07T02:46:46;24.60;;;13.65;;
79074;SDS011;68476;42.710;23.388;2024-03-07T02:49:14;19.60;;;11.48;;
79074;SDS011;68476;42.710;23.388;2024-03-07T02:51:40;14.32;;;8.48;;
79074;SDS011;68476;42.710;23.388;2024-03-07T02:54:07;10.57;;;6.40;;
79074;SDS011;68476;42.710;23.388;2024-03-07T02:56:33;9.63;;;5.97;;
79074;SDS011;68476;42.710;23.388;2024-03-07T02:58:58;9.18;;;5.63;;
79074;SDS011;68476;42.710;23.388;2024-03-07T03:01:24;6.20;;;3.97;;
79074;SDS011;68476;42.710;23.388;2024-03-07T03:03:49;5.18;;;3.75;;
79074;SDS011;68476;42.710;23.388;2024-03-07T03:06:15;5.45;;;3.13;;
79074;SDS011;68476;42.710;23.388;2024-03-07T03:08:40;4.28;;;2.97;;
79074;SDS011;68476;42.710;23.388;2024-03-07T03:11:06;3.72;;;2.60;;
79074;SDS011;68476;42.710;23.388;2024-03-07T03:13:34;3.35;;;2.28;;
79074;SDS011;68476;42.710;23.388;2024-03-07T03:16:03;3.83;;;2.58;;
79074;SDS011;68476;42.710;23.388;2024-03-07T03:18:32;3.53;;;2.42;;
79074;SDS011;68476;42.710;23.388;2024-03-07T03:20:59;3.72;;;2.22;;
79074;SDS011;68476;42.710;23.388;2024-03-07T03:23:25;3.35;;;2.30;;
79074;SDS011;68476;42.710;23.388;2024-03-07T03:25:50;3.75;;;2.50;;
79074;SDS011;68476;42.710;23.388;2024-03-07T03:28:16;5.13;;;3.13;;
79074;SDS011;68476;42.710;23.388;2024-03-07T03:30:44;4.13;;;2.65;;
79074;SDS011;68476;42.710;23.388;2024-03-07T03:33:10;4.20;;;2.70;;
79074;SDS011;68476;42.710;23.388;2024-03-07T03:35:36;3.50;;;2.28;;
79074;SDS011;68476;42.710;23.388;2024-03-07T03:38:02;3.75;;;2.53;;
79074;SDS011;68476;42.710;23.388;2024-03-07T03:40:28;3.88;;;2.30;;
79074;SDS011;68476;42.710;23.388;2024-03-07T03:42:53;3.60;;;2.30;;
79074;SDS011;68476;42.710;23.388;2024-03-07T03:45:19;3.38;;;2.30;;
79074;SDS011;68476;42.710;23.388;2024-03-07T03:47:45;3.15;;;2.10;;
79074;SDS011;68476;42.710;23.388;2024-03-07T03:50:12;4.05;;;2.15;;
79074;SDS011;68476;42.710;23.388;2024-03-07T03:52:38;4.40;;;2.30;;
79074;SDS011;68476;42.710;23.388;2024-03-07T03:55:04;3.47;;;2.30;;
79074;SDS011;68476;42.710;23.388;2024-03-07T03:57:37;3.63;;;2.72;;
79074;SDS011;68476;42.710;23.388;2024-03-07T04:00:05;4.07;;;3.00;;
79074;SDS011;68476;42.710;23.388;2024-03-07T04:02:37;4.80;;;3.60;;
79074;SDS011;68476;42.710;23.388;2024-03-07T04:05:06;4.68;;;3.50;;
79074;SDS011;68476;42.710;23.388;2024-03-07T04:07:34;6.13;;;3.47;;
79074;SDS011;68476;42.710;23.388;2024-03-07T04:10:00;5.60;;;3.88;;
79074;SDS011;68476;42.710;23.388;2024-03-07T04:12:29;4.70;;;3.40;;
79074;SDS011;68476;42.710;23.388;2024-03-07T04:14:54;5.25;;;3.17;;
79074;SDS011;68476;42.710;23.388;2024-03-07T04:17:20;5.18;;;3.65;;
79074;SDS011;68476;42.710;23.388;2024-03-07T04:19:46;5.68;;;3.83;;
79074;SDS011;68476;42.710;23.388;2024-03-07T04:22:12;5.18;;;3.58;;
79074;SDS011;68476;42.710;23.388;2024-03-07T04:24:38;5.82;;;3.83;;
79074;SDS011;68476;42.710;23.388;2024-03-07T04:27:05;5.78;;;3.80;;
79074;SDS011;68476;42.710;23.388;2024-03-07T04:29:32;5.18;;;3.60;;
79074;SDS011;68476;42.710;23.388;2024-03-07T04:31:58;4.95;;;3.25;;
79074;SDS011;68476;42.710;23.388;2024-03-07T04:34:28;5.47;;;3.72;;
79074;SDS011;68476;42.710;23.388;2024-03-07T04:36:57;5.05;;;3.65;;
79074;SDS011;68476;42.710;23.388;2024-03-07T04:39:24;4.65;;;3.55;;
79074;SDS011;68476;42.710;23.388;2024-03-07T04:41:57;6.00;;;3.90;;
79074;SDS011;68476;42.710;23.388;2024-03-07T04:44:31;7.15;;;4.22;;
79074;SDS011;68476;42.710;23.388;2024-03-07T04:46:58;7.55;;;4.82;;
79074;SDS011;68476;42.710;23.388;2024-03-07T04:49:26;6.68;;;3.80;;
79074;SDS011;68476;42.710;23.388;2024-03-07T04:51:54;5.55;;;3.70;;
79074;SDS011;68476;42.710;23.388;2024-03-07T04:54:21;6.75;;;4.20;;
79074;SDS011;68476;42.710;23.388;2024-03-07T04:56:48;6.20;;;4.40;;
79074;SDS011;68476;42.710;23.388;2024-03-07T04:59:15;5.60;;;3.70;;
79074;SDS011;68476;42.710;23.388;2024-03-07T05:01:42;5.30;;;4.50;;
79074;SDS011;68476;42.710;23.388;2024-03-07T05:04:08;6.20;;;4.07;;
79074;SDS011;68476;42.710;23.388;2024-03-07T05:06:34;5.80;;;3.42;;
79074;SDS011;68476;42.710;23.388;2024-03-07T05:09:04;6.00;;;4.25;;
79074;SDS011;68476;42.710;23.388;2024-03-07T05:11:32;5.70;;;3.88;;
79074;SDS011;68476;42.710;23.388;2024-03-07T05:13:58;7.78;;;5.50;;
79074;SDS011;68476;42.710;23.388;2024-03-07T05:16:25;6.95;;;4.63;;
79074;SDS011;68476;42.710;23.388;2024-03-07T05:18:51;6.68;;;4.88;;
79074;SDS011;68476;42.710;23.388;2024-03-07T05:21:18;6.88;;;5.32;;
79074;SDS011;68476;42.710;23.388;2024-03-07T05:24:01;6.80;;;5.07;;
79074;SDS011;68476;42.710;23.388;2024-03-07T05:26:28;6.97;;;5.20;;
79074;SDS011;68476;42.710;23.388;2024-03-07T05:29:00;6.60;;;5.03;;
79074;SDS011;68476;42.710;23.388;2024-03-07T05:31:35;7.60;;;5.72;;
79074;SDS011;68476;42.710;23.388;2024-03-07T05:34:06;7.35;;;4.60;;
79074;SDS011;68476;42.710;23.388;2024-03-07T05:36:34;7.65;;;5.50;;
79074;SDS011;68476;42.710;23.388;2024-03-07T05:39:00;7.45;;;5.45;;
79074;SDS011;68476;42.710;23.388;2024-03-07T05:41:33;5.35;;;3.90;;
79074;SDS011;68476;42.710;23.388;2024-03-07T05:43:59;7.40;;;6.25;;
79074;SDS011;68476;42.710;23.388;2024-03-07T05:46:25;6.05;;;4.40;;
79074;SDS011;68476;42.710;23.388;2024-03-07T05:48:50;4.97;;;3.45;;
79074;SDS011;68476;42.710;23.388;2024-03-07T05:51:21;5.53;;;3.92;;
79074;SDS011;68476;42.710;23.388;2024-03-07T05:53:49;5.38;;;3.47;;
79074;SDS011;68476;42.710;23.388;2024-03-07T05:56:15;4.20;;;3.38;;
79074;SDS011;68476;42.710;23.388;2024-03-07T05:58:41;4.88;;;3.58;;
79074;SDS011;68476;42.710;23.388;2024-03-07T06:01:07;5.53;;;4.00;;
79074;SDS011;68476;42.710;23.388;2024-03-07T06:03:33;5.88;;;3.60;;
79074;SDS011;68476;42.710;23.388;2024-03-07T06:05:59;5.40;;;3.60;;
79074;SDS011;68476;42.710;23.388;2024-03-07T06:08:25;4.90;;;3.78;;
79074;SDS011;68476;42.710;23.388;2024-03-07T06:10:50;4.90;;;3.90;;
79074;SDS011;68476;42.710;23.388;2024-03-07T06:13:16;5.13;;;3.65;;
79074;SDS011;68476;42.710;23.388;2024-03-07T06:15:45;5.70;;;3.90;;
79074;SDS011;68476;42.710;23.388;2024-03-07T06:18:13;5.28;;;3.80;;
79074;SDS011;68476;42.710;23.388;2024-03-07T06:20:42;4.90;;;3.90;;
79074;SDS011;68476;42.710;23.388;2024-03-07T06:25:36;4.22;;;2.97;;
79074;SDS011;68476;42.710;23.388;2024-03-07T06:28:11;5.18;;;3.40;;
79074;SDS011;68476;42.710;23.388;2024-03-07T06:30:45;5.20;;;3.53;;
79074;SDS011;68476;42.710;23.388;2024-03-07T06:33:12;3.83;;;2.65;;
79074;SDS011;68476;42.710;23.388;2024-03-07T06:35:38;4.20;;;2.97;;
79074;SDS011;68476;42.710;23.388;2024-03-07T06:38:05;4.38;;;2.92;;
79074;SDS011;68476;42.710;23.388;2024-03-07T06:40:32;3.70;;;2.70;;
79074;SDS011;68476;42.710;23.388;2024-03-07T06:43:00;4.32;;;3.03;;
79074;SDS011;68476;42.710;23.388;2024-03-07T06:45:29;4.95;;;3.22;;
79074;SDS011;68476;42.710;23.388;2024-03-07T06:47:55;4.30;;;3.00;;
79074;SDS011;68476;42.710;23.388;2024-03-07T06:50:20;4.05;;;2.92;;
79074;SDS011;68476;42.710;23.388;2024-03-07T06:52:46;6.18;;;3.40;;
79074;SDS011;68476;42.710;23.388;2024-03-07T06:55:15;4.40;;;3.42;;
79074;SDS011;68476;42.710;23.388;2024-03-07T06:57:42;5.13;;;3.70;;
79074;SDS011;68476;42.710;23.388;2024-03-07T07:00:08;5.47;;;3.53;;
79074;SDS011;68476;42.710;23.388;2024-03-07T07:02:39;6.55;;;3.40;;
79074;SDS011;68476;42.710;23.388;2024-03-07T07:05:08;4.28;;;2.80;;
79074;SDS011;68476;42.710;23.388;2024-03-07T07:07:40;3.80;;;2.90;;
79074;SDS011;68476;42.710;23.388;2024-03-07T07:10:09;4.43;;;2.80;;
79074;SDS011;68476;42.710;23.388;2024-03-07T07:12:41;5.47;;;3.40;;
79074;SDS011;68476;42.710;23.388;2024-03-07T07:15:08;4.10;;;3.10;;
79074;SDS011;68476;42.710;23.388;2024-03-07T07:17:35;4.28;;;3.10;;
79074;SDS011;68476;42.710;23.388;2024-03-07T07:20:01;4.93;;;3.42;;
79074;SDS011;68476;42.710;23.388;2024-03-07T07:22:26;5.35;;;3.75;;
79074;SDS011;68476;42.710;23.388;2024-03-07T07:24:52;6.07;;;3.60;;
79074;SDS011;68476;42.710;23.388;2024-03-07T07:27:17;5.47;;;3.42;;
79074;SDS011;68476;42.710;23.388;2024-03-07T07:29:43;5.35;;;3.38;;
79074;SDS011;68476;42.710;23.388;2024-03-07T07:32:09;3.97;;;3.22;;
79074;SDS011;68476;42.710;23.388;2024-03-07T07:34:37;5.13;;;3.00;;
79074;SDS011;68476;42.710;23.388;2024-03-07T07:37:04;4.78;;;2.85;;
79074;SDS011;68476;42.710;23.388;2024-03-07T07:39:29;6.28;;;2.65;;
79074;SDS011;68476;42.710;23.388;2024-03-07T07:41:55;5.38;;;3.20;;
79074;SDS011;68476;42.710;23.388;2024-03-07T07:44:21;4.10;;;2.70;;
79074;SDS011;68476;42.710;23.388;2024-03-07T07:46:47;4.30;;;2.67;;
79074;SDS011;68476;42.710;23.388;2024-03-07T07:49:14;3.80;;;2.67;;
79074;SDS011;68476;42.710;23.388;2024-03-07T07:51:41;5.32;;;2.92;;
79074;SDS011;68476;42.710;23.388;2024-03-07T07:54:07;3.28;;;2.70;;
79074;SDS011;68476;42.710;23.388;2024-03-07T07:56:34;4.28;;;3.00;;
79074;SDS011;68476;42.710;23.388;2024-03-07T07:59:00;3.95;;;3.00;;
79074;SDS011;68476;42.710;23.388;2024-03-07T08:01:26;4.00;;;2.60;;
79074;SDS011;68476;42.710;23.388;2024-03-07T08:03:52;5.40;;;2.80;;
79074;SDS011;68476;42.710;23.388;2024-03-07T08:06:18;4.00;;;3.17;;
79074;SDS011;68476;42.710;23.388;2024-03-07T08:08:44;4.88;;;2.80;;
79074;SDS011;68476;42.710;23.388;2024-03-07T08:11:09;4.50;;;2.95;;
79074;SDS011;68476;42.710;23.388;2024-03-07T08:13:37;4.13;;;3.17;;
79074;SDS011;68476;42.710;23.388;2024-03-07T08:16:02;3.85;;;2.63;;
79074;SDS011;68476;42.710;23.388;2024-03-07T08:18:28;3.53;;;2.75;;
79074;SDS011;68476;42.710;23.388;2024-03-07T08:20:54;3.88;;;2.55;;
79074;SDS011;68476;42.710;23.388;2024-03-07T08:23:20;4.50;;;2.70;;
79074;SDS011;68476;42.710;23.388;2024-03-07T08:25:48;3.17;;;2.50;;
79074;SDS011;68476;42.710;23.388;2024-03-07T08:28:13;4.13;;;3.28;;
79074;SDS011;68476;42.710;23.388;2024-03-07T08:30:39;4.03;;;2.97;;
79074;SDS011;68476;42.710;23.388;2024-03-07T08:33:04;4.07;;;3.08;;
79074;SDS011;68476;42.710;23.388;2024-03-07T08:35:30;4.13;;;3.40;;
79074;SDS011;68476;42.710;23.388;2024-03-07T08:37:56;3.92;;;2.95;;
79074;SDS011;68476;42.710;23.388;2024-03-07T08:40:29;4.40;;;3.30;;
79074;SDS011;68476;42.710;23.388;2024-03-07T08:42:59;3.95;;;3.00;;
79074;SDS011;68476;42.710;23.388;2024-03-07T08:45:25;3.60;;;2.97;;
79074;SDS011;68476;42.710;23.388;2024-03-07T08:47:52;4.40;;;3.03;;
79074;SDS011;68476;42.710;23.388;2024-03-07T08:50:21;4.55;;;3.65;;
79074;SDS011;68476;42.710;23.388;2024-03-07T08:52:51;4.13;;;3.13;;
79074;SDS011;68476;42.710;23.388;2024-03-07T08:55:18;3.95;;;3.15;;
79074;SDS011;68476;42.710;23.388;2024-03-07T08:57:45;4.07;;;2.58;;
79074;SDS011;68476;42.710;23.388;2024-03-07T09:00:13;4.60;;;3.22;;
79074;SDS011;68476;42.710;23.388;2024-03-07T09:02:52;3.70;;;2.65;;
79074;SDS011;68476;42.710;23.388;2024-03-07T09:05:18;3.85;;;2.53;;
79074;SDS011;68476;42.710;23.388;2024-03-07T09:07:45;4.05;;;2.42;;
79074;SDS011;68476;42.710;23.388;2024-03-07T09:10:15;3.58;;;2.70;;
79074;SDS011;68476;42.710;23.388;2024-03-07T09:12:41;3.65;;;2.80;;
79074;SDS011;68476;42.710;23.388;2024-03-07T09:15:07;3.63;;;2.60;;
79074;SDS011;68476;42.710;23.388;2024-03-07T09:17:37;3.35;;;2.40;;
79074;SDS011;68476;42.710;23.388;2024-03-07T09:20:03;3.92;;;3.00;;
79074;SDS011;68476;42.710;23.388;2024-03-07T09:22:30;5.80;;;2.70;;
79074;SDS011;68476;42.710;23.388;2024-03-07T09:24:56;4.10;;;2.97;;
79074;SDS011;68476;42.710;23.388;2024-03-07T09:27:22;4.10;;;3.13;;
79074;SDS011;68476;42.710;23.388;2024-03-07T09:29:48;4.68;;;3.00;;
79074;SDS011;68476;42.710;23.388;2024-03-07T09:32:13;4.25;;;3.10;;
79074;SDS011;68476;42.710;23.388;2024-03-07T09:34:39;4.20;;;2.67;;
79074;SDS011;68476;42.710;23.388;2024-03-07T09:37:05;4.15;;;2.80;;
79074;SDS011;68476;42.710;23.388;2024-03-07T09:39:33;3.63;;;2.60;;
79074;SDS011;68476;42.710;23.388;2024-03-07T09:42:02;3.50;;;2.70;;
79074;SDS011;68476;42.710;23.388;2024-03-07T09:44:28;4.25;;;2.65;;
79074;SDS011;68476;42.710;23.388;2024-03-07T09:46:56;3.38;;;2.50;;
79074;SDS011;68476;42.710;23.388;2024-03-07T09:49:28;3.15;;;2.50;;
79074;SDS011;68476;42.710;23.388;2024-03-07T09:51:54;4.00;;;2.85;;
79074;SDS011;68476;42.710;23.388;2024-03-07T09:54:24;4.38;;;2.58;;
79074;SDS011;68476;42.710;23.388;2024-03-07T09:56:51;5.32;;;2.90;;
79074;SDS011;68476;42.710;23.388;2024-03-07T09:59:19;4.00;;;2.80;;
79074;SDS011;68476;42.710;23.388;2024-03-07T10:01:47;3.67;;;2.75;;
79074;SDS011;68476;42.710;23.388;2024-03-07T10:04:16;4.47;;;2.65;;
79074;SDS011;68476;42.710;23.388;2024-03-07T10:06:50;5.50;;;3.00;;
79074;SDS011;68476;42.710;23.388;2024-03-07T10:09:18;4.95;;;3.50;;
79074;SDS011;68476;42.710;23.388;2024-03-07T10:11:55;3.92;;;2.85;;
79074;SDS011;68476;42.710;23.388;2024-03-07T10:14:23;4.65;;;2.83;;
79074;SDS011;68476;42.710;23.388;2024-03-07T10:16:49;4.43;;;2.92;;
79074;SDS011;68476;42.710;23.388;2024-03-07T10:19:14;4.70;;;3.00;;
79074;SDS011;68476;42.710;23.388;2024-03-07T10:21:40;4.13;;;3.25;;
79074;SDS011;68476;42.710;23.388;2024-03-07T10:24:08;4.20;;;3.10;;
79074;SDS011;68476;42.710;23.388;2024-03-07T10:26:36;3.92;;;3.00;;
79074;SDS011;68476;42.710;23.388;2024-03-07T10:29:06;3.88;;;3.03;;
79074;SDS011;68476;42.710;23.388;2024-03-07T10:31:35;3.90;;;2.90;;
79074;SDS011;68476;42.710;23.388;2024-03-07T10:34:02;4.97;;;3.63;;
79074;SDS011;68476;42.710;23.388;2024-03-07T10:36:29;4.00;;;3.00;;
79074;SDS011;68476;42.710;23.388;2024-03-07T10:38:59;4.68;;;2.92;;
79074;SDS011;68476;42.710;23.388;2024-03-07T10:41:48;4.22;;;2.75;;
79074;SDS011;68476;42.710;23.388;2024-03-07T10:44:18;5.68;;;2.88;;
79074;SDS011;68476;42.710;23.388;2024-03-07T10:46:59;3.72;;;2.80;;
79074;SDS011;68476;42.710;23.388;2024-03-07T10:49:28;4.22;;;2.95;;
79074;SDS011;68476;42.710;23.388;2024-03-07T10:52:02;4.68;;;3.53;;
79074;SDS011;68476;42.710;23.388;2024-03-07T10:54:51;5.82;;;3.10;;
79074;SDS011;68476;42.710;23.388;2024-03-07T10:58:01;5.15;;;3.45;;
79074;SDS011;68476;42.710;23.388;2024-03-07T11:00:27;5.38;;;3.72;;
79074;SDS011;68476;42.710;23.388;2024-03-07T11:05:34;4.93;;;3.63;;
79074;SDS011;68476;42.710;23.388;2024-03-07T11:08:01;5.57;;;3.60;;
79074;SDS011;68476;42.710;23.388;2024-03-07T11:10:30;6.05;;;4.00;;
79074;SDS011;68476;42.710;23.388;2024-03-07T11:12:56;5.60;;;3.67;;
79074;SDS011;68476;42.710;23.388;2024-03-07T11:15:24;5.00;;;4.00;;
79074;SDS011;68476;42.710;23.388;2024-03-07T11:17:52;4.53;;;3.58;;
79074;SDS011;68476;42.710;23.388;2024-03-07T11:22:48;4.47;;;3.45;;
79074;SDS011;68476;42.710;23.388;2024-03-07T11:25:17;4.97;;;3.70;;
79074;SDS011;68476;42.710;23.388;2024-03-07T11:27:57;5.20;;;3.88;;
79074;SDS011;68476;42.710;23.388;2024-03-07T11:30:24;4.95;;;3.83;;
79074;SDS011;68476;42.710;23.388;2024-03-07T11:32:50;4.88;;;3.30;;
79074;SDS011;68476;42.710;23.388;2024-03-07T11:35:20;4.90;;;3.33;;
79074;SDS011;68476;42.710;23.388;2024-03-07T11:37:56;5.55;;;3.55;;
79074;SDS011;68476;42.710;23.388;2024-03-07T11:42:49;4.53;;;3.63;;
79074;SDS011;68476;42.710;23.388;2024-03-07T11:45:17;6.18;;;3.75;;
79074;SDS011;68476;42.710;23.388;2024-03-07T11:47:53;5.20;;;3.75;;
79074;SDS011;68476;42.710;23.388;2024-03-07T11:50:37;5.43;;;4.00;;
79074;SDS011;68476;42.710;23.388;2024-03-07T11:53:05;5.57;;;4.25;;
79074;SDS011;68476;42.710;23.388;2024-03-07T11:55:35;6.13;;;4.50;;
79074;SDS011;68476;42.710;23.388;2024-03-07T11:58:13;6.30;;;5.47;;
79074;SDS011;68476;42.710;23.388;2024-03-07T12:03:14;7.50;;;5.30;;
79074;SDS011;68476;42.710;23.388;2024-03-07T12:05:46;8.25;;;5.25;;
79074;SDS011;68476;42.710;23.388;2024-03-07T12:08:12;6.90;;;5.40;;
79074;SDS011;68476;42.710;23.388;2024-03-07T12:10:38;8.85;;;5.35;;
79074;SDS011;68476;42.710;23.388;2024-03-07T12:13:05;8.60;;;5.40;;
79074;SDS011;68476;42.710;23.388;2024-03-07T12:15:32;9.23;;;5.95;;
79074;SDS011;68476;42.710;23.388;2024-03-07T12:17:59;8.23;;;6.63;;
79074;SDS011;68476;42.710;23.388;2024-03-07T12:20:27;7.43;;;5.95;;
79074;SDS011;68476;42.710;23.388;2024-03-07T12:23:01;6.63;;;5.57;;
79074;SDS011;68476;42.710;23.388;2024-03-07T12:25:46;8.07;;;4.93;;
79074;SDS011;68476;42.710;23.388;2024-03-07T12:28:12;6.47;;;4.63;;
79074;SDS011;68476;42.710;23.388;2024-03-07T12:33:17;8.93;;;5.85;;
79074;SDS011;68476;42.710;23.388;2024-03-07T12:35:45;8.02;;;5.32;;
79074;SDS011;68476;42.710;23.388;2024-03-07T12:38:13;8.52;;;5.45;;
79074;SDS011;68476;42.710;23.388;2024-03-07T12:40:41;13.10;;;5.88;;
79074;SDS011;68476;42.710;23.388;2024-03-07T12:43:20;9.95;;;6.43;;
79074;SDS011;68476;42.710;23.388;2024-03-07T12:48:16;8.63;;;6.53;;
79074;SDS011;68476;42.710;23.388;2024-03-07T12:50:45;9.23;;;5.93;;
79074;SDS011;68476;42.710;23.388;2024-03-07T12:53:11;9.32;;;5.93;;
79074;SDS011;68476;42.710;23.388;2024-03-07T12:55:38;7.57;;;6.13;;
79074;SDS011;68476;42.710;23.388;2024-03-07T12:58:09;6.38;;;4.78;;
79074;SDS011;68476;42.710;23.388;2024-03-07T13:00:38;5.93;;;5.10;;
79074;SDS011;68476;42.710;23.388;2024-03-07T13:03:06;7.03;;;5.43;;
79074;SDS011;68476;42.710;23.388;2024-03-07T13:05:32;7.13;;;5.45;;
79074;SDS011;68476;42.710;23.388;2024-03-07T13:07:58;7.25;;;4.57;;
79074;SDS011;68476;42.710;23.388;2024-03-07T13:10:23;5.38;;;4.00;;
79074;SDS011;68476;42.710;23.388;2024-03-07T13:12:49;6.13;;;4.82;;
79074;SDS011;68476;42.710;23.388;2024-03-07T13:15:16;6.88;;;4.38;;
79074;SDS011;68476;42.710;23.388;2024-03-07T13:17:42;7.63;;;4.18;;
79074;SDS011;68476;42.710;23.388;2024-03-07T13:20:11;6.40;;;3.88;;
79074;SDS011;68476;42.710;23.388;2024-03-07T13:22:41;4.57;;;3.80;;
79074;SDS011;68476;42.710;23.388;2024-03-07T13:25:08;6.18;;;4.00;;
79074;SDS011;68476;42.710;23.388;2024-03-07T13:27:43;5.38;;;4.00;;
79074;SDS011;68476;42.710;23.388;2024-03-07T13:30:09;5.25;;;3.92;;
79074;SDS011;68476;42.710;23.388;2024-03-07T13:32:40;5.80;;;4.53;;
79074;SDS011;68476;42.710;23.388;2024-03-07T13:35:06;4.82;;;4.00;;
79074;SDS011;68476;42.710;23.388;2024-03-07T13:37:36;7.47;;;4.28;;
79074;SDS011;68476;42.710;23.388;2024-03-07T13:40:02;7.05;;;4.43;;
79074;SDS011;68476;42.710;23.388;2024-03-07T13:42:48;5.55;;;3.83;;
79074;SDS011;68476;42.710;23.388;2024-03-07T13:45:17;4.90;;;3.42;;
79074;SDS011;68476;42.710;23.388;2024-03-07T13:47:46;5.18;;;3.70;;
79074;SDS011;68476;42.710;23.388;2024-03-07T13:50:17;5.53;;;3.80;;
79074;SDS011;68476;42.710;23.388;2024-03-07T13:52:48;5.07;;;3.53;;
79074;SDS011;68476;42.710;23.388;2024-03-07T13:55:33;4.85;;;3.70;;
79074;SDS011;68476;42.710;23.388;2024-03-07T13:58:07;5.97;;;4.00;;
79074;SDS011;68476;42.710;23.388;2024-03-07T14:12:40;8.07;;;4.22;;
79074;SDS011;68476;42.710;23.388;2024-03-07T14:21:10;6.75;;;5.05;;
79074;SDS011;68476;42.710;23.388;2024-03-07T14:32:09;5.82;;;3.80;;
79074;SDS011;68476;42.710;23.388;2024-03-07T14:40:30;9.70;;;4.50;;
79074;SDS011;68476;42.710;23.388;2024-03-07T14:42:56;6.20;;;3.97;;
79074;SDS011;68476;42.710;23.388;2024-03-07T14:45:30;7.88;;;5.10;;
79074;SDS011;68476;42.710;23.388;2024-03-07T14:48:00;6.47;;;4.30;;
79074;SDS011;68476;42.710;23.388;2024-03-07T14:50:27;10.13;;;5.15;;
79074;SDS011;68476;42.710;23.388;2024-03-07T14:52:55;7.70;;;5.30;;
79074;SDS011;68476;42.710;23.388;2024-03-07T14:55:20;8.80;;;5.22;;
79074;SDS011;68476;42.710;23.388;2024-03-07T14:57:46;10.13;;;5.45;;
79074;SDS011;68476;42.710;23.388;2024-03-07T15:00:12;7.30;;;5.20;;
79074;SDS011;68476;42.710;23.388;2024-03-07T15:02:48;7.88;;;5.15;;
79074;SDS011;68476;42.710;23.388;2024-03-07T15:05:15;7.63;;;5.03;;
79074;SDS011;68476;42.710;23.388;2024-03-07T15:07:42;9.63;;;5.82;;
79074;SDS011;68476;42.710;23.388;2024-03-07T15:10:32;9.25;;;5.82;;
79074;SDS011;68476;42.710;23.388;2024-03-07T15:12:59;7.78;;;5.35;;
79074;SDS011;68476;42.710;23.388;2024-03-07T15:15:25;6.57;;;3.95;;
79074;SDS011;68476;42.710;23.388;2024-03-07T15:17:55;6.38;;;4.05;;
79074;SDS011;68476;42.710;23.388;2024-03-07T15:20:22;4.93;;;3.30;;
79074;SDS011;68476;42.710;23.388;2024-03-07T15:22:50;5.13;;;3.60;;